Time;durP1;ratioP1;P1;durP2;ratioP2;P2;SDS_P1;SDS_P2;PMS_P1;PMS_P2;Temp;Humidity;BMP_temperature;BMP_pressure;BME280_temperature;BME280_humidity;BME280_pressure;Samples;Min_cycle;Max_cycle;Signal;HPM_P1;HPM_P2
2021/10/03 00:00:18;;;;;;;3.67;2.83;;;;;;;16.61;64.25;95040.09;4968484;29;20259;-82
2021/10/03 00:02:52;;;;;;;3.85;3.15;;;;;;;16.61;64.10;95037.50;4968754;29;20224;-83
2021/10/03 00:05:24;;;;;;;3.22;2.92;;;;;;;16.61;63.70;95028.91;4968892;29;20196;-82
2021/10/03 00:07:58;;;;;;;3.78;3.05;;;;;;;16.59;63.58;95040.31;4968054;29;20716;-80
2021/10/03 00:10:32;;;;;;;3.03;2.80;;;;;;;16.62;63.49;95033.09;4968266;29;20646;-81
2021/10/03 00:15:48;;;;;;;3.80;2.92;;;;;;;16.49;63.40;95045.31;4958943;29;20309;-82
2021/10/03 00:18:18;;;;;;;3.53;2.90;;;;;;;16.41;63.70;95044.84;4966608;29;20295;-81
2021/10/03 00:20:48;;;;;;;8.35;3.03;;;;;;;16.42;63.50;95043.81;4966466;29;20577;-82
2021/10/03 00:23:18;;;;;;;4.22;2.97;;;;;;;16.42;63.31;95041.22;4966724;29;20216;-82
2021/10/03 00:26:05;;;;;;;3.90;3.33;;;;;;;16.46;62.99;95035.38;4965699;29;20209;-81
2021/10/03 00:28:31;;;;;;;3.55;2.70;;;;;;;16.47;63.15;95033.56;4967217;29;20224;-82
2021/10/03 00:31:00;;;;;;;4.40;2.72;;;;;;;16.48;62.97;95033.34;4966134;28;20228;-82
2021/10/03 00:33:34;;;;;;;4.25;2.92;;;;;;;16.40;62.87;95025.06;4947691;29;20619;-82
2021/10/03 00:36:04;;;;;;;2.80;2.60;;;;;;;16.35;62.75;95024.97;4946225;29;20236;-82
2021/10/03 00:38:44;;;;;;;3.13;2.83;;;;;;;16.39;63.12;95026.88;4945033;29;20221;-84
2021/10/03 00:41:15;;;;;;;2.78;2.50;;;;;;;16.37;62.34;95028.91;4937923;29;20229;-84
2021/10/03 00:43:50;;;;;;;2.95;2.65;;;;;;;16.41;62.32;95026.66;4937279;29;20208;-84
2021/10/03 00:46:20;;;;;;;2.78;2.58;;;;;;;16.45;62.02;95025.19;4952279;29;20232;-84
2021/10/03 00:48:47;;;;;;;2.90;2.70;;;;;;;16.35;61.70;95014.59;4956184;29;20200;-84
2021/10/03 00:51:13;;;;;;;4.00;2.40;;;;;;;16.33;61.79;95014.81;4957007;29;20785;-85
2021/10/03 00:53:42;;;;;;;4.03;2.30;;;;;;;16.29;61.62;95012.88;4956828;29;20208;-82
2021/10/03 00:56:12;;;;;;;3.95;2.70;;;;;;;16.26;61.67;95003.72;4956332;29;20201;-84
2021/10/03 00:58:40;;;;;;;2.60;2.40;;;;;;;16.38;61.25;94995.91;4957859;28;20225;-85
2021/10/03 01:01:07;;;;;;;2.53;2.33;;;;;;;16.35;60.82;94999.78;4959465;29;20212;-85
2021/10/03 01:03:35;;;;;;;2.53;2.33;;;;;;;16.39;61.33;95002.69;4959210;29;20587;-84
2021/10/03 01:06:06;;;;;;;3.75;2.30;;;;;;;16.48;60.71;95006.56;4958974;28;20746;-81
2021/10/03 01:08:32;;;;;;;3.35;2.55;;;;;;;16.45;60.37;95001.81;4959068;29;20237;-85
2021/10/03 01:10:59;;;;;;;3.08;2.53;;;;;;;16.50;60.65;94994.13;4959581;29;20209;-84
2021/10/03 01:13:26;;;;;;;2.70;2.17;;;;;;;16.44;60.18;94998.41;4958495;29;20272;-84
2021/10/03 01:15:55;;;;;;;2.60;2.40;;;;;;;16.45;60.13;95000.00;4958439;29;20211;-85
2021/10/03 01:18:22;;;;;;;2.40;2.20;;;;;;;16.46;59.81;94991.19;4959280;29;20236;-84
2021/10/03 01:20:49;;;;;;;3.42;2.40;;;;;;;16.54;59.90;94998.66;4958268;29;20735;-85
2021/10/03 01:23:17;;;;;;;2.05;1.95;;;;;;;16.55;59.56;94992.41;4959057;29;20227;-83
2021/10/03 01:25:46;;;;;;;5.03;2.55;;;;;;;16.65;59.65;94986.69;4958695;29;20205;-85
2021/10/03 01:28:14;;;;;;;2.63;2.42;;;;;;;16.71;59.25;94990.19;4961339;28;20692;-85
2021/10/03 01:30:44;;;;;;;2.33;2.22;;;;;;;16.74;58.94;94997.53;4960189;28;20244;-84
2021/10/03 01:33:10;;;;;;;3.40;2.30;;;;;;;16.71;58.19;94984.97;4958542;29;20243;-84
2021/10/03 01:35:38;;;;;;;2.35;2.15;;;;;;;16.76;58.72;94985.84;4958587;29;20237;-85
2021/10/03 01:38:07;;;;;;;2.95;2.40;;;;;;;16.73;58.53;94983.72;4958385;29;20232;-85
2021/10/03 01:40:35;;;;;;;2.92;2.50;;;;;;;16.76;58.52;94983.25;4958507;29;20246;-82
2021/10/03 01:43:02;;;;;;;2.30;2.08;;;;;;;16.78;57.94;94975.22;4958745;29;20240;-85
2021/10/03 01:45:28;;;;;;;2.33;2.13;;;;;;;16.84;58.27;94979.53;4958864;29;20201;-82
2021/10/03 01:48:01;;;;;;;2.13;2.03;;;;;;;16.87;57.82;94973.88;4958173;29;20232;-85
2021/10/03 01:50:28;;;;;;;4.57;1.90;;;;;;;16.89;57.47;94971.81;4958353;29;20591;-85
2021/10/03 01:52:57;;;;;;;5.35;2.58;;;;;;;16.87;57.88;94964.25;4958143;29;20578;-83
2021/10/03 01:55:24;;;;;;;2.30;2.10;;;;;;;16.88;57.64;94971.03;4957768;29;20204;-85
2021/10/03 01:57:52;;;;;;;3.15;2.20;;;;;;;16.85;57.67;94968.88;4957755;29;20244;-83
2021/10/03 02:00:18;;;;;;;2.30;2.10;;;;;;;16.81;56.95;94959.16;4957974;29;20763;-85
2021/10/03 02:02:45;;;;;;;2.85;2.25;;;;;;;16.80;56.97;94962.78;4957924;29;20296;-84
2021/10/03 02:05:11;;;;;;;2.65;2.40;;;;;;;16.78;57.23;94955.22;4957754;29;20568;-85
2021/10/03 02:07:38;;;;;;;2.25;2.05;;;;;;;16.73;56.94;94957.75;4957283;28;20269;-83
2021/10/03 02:10:05;;;;;;;2.40;2.20;;;;;;;16.71;56.84;94959.78;4957539;28;20200;-83
2021/10/03 02:12:32;;;;;;;2.33;2.13;;;;;;;16.71;57.36;94951.19;4958278;29;20212;-85
2021/10/03 02:15:00;;;;;;;2.50;2.30;;;;;;;16.76;56.67;94953.88;4957922;29;20205;-81
2021/10/03 02:17:30;;;;;;;2.92;2.13;;;;;;;16.79;56.74;94949.00;4957897;29;20324;-85
2021/10/03 02:19:57;;;;;;;2.30;2.10;;;;;;;16.82;56.38;94953.75;4958377;29;20201;-82
2021/10/03 02:22:25;;;;;;;2.28;2.10;;;;;;;16.83;56.48;94951.94;4957972;29;20224;-84
2021/10/03 02:24:56;;;;;;;2.97;2.20;;;;;;;16.86;56.56;94947.06;4957435;29;20264;-84
2021/10/03 02:27:23;;;;;;;2.92;2.10;;;;;;;16.84;56.39;94943.13;4957801;29;20236;-84
2021/10/03 02:29:49;;;;;;;2.42;2.22;;;;;;;16.87;56.78;94946.06;4952526;28;20242;-84
2021/10/03 02:32:17;;;;;;;2.13;2.00;;;;;;;16.88;56.71;94950.22;4937690;29;20257;-85
2021/10/03 02:34:43;;;;;;;2.60;2.40;;;;;;;16.91;56.67;94946.38;4937723;29;20202;-84
2021/10/03 02:37:10;;;;;;;3.08;2.28;;;;;;;16.95;56.17;94941.50;4938062;29;20225;-84
2021/10/03 02:39:37;;;;;;;3.42;2.38;;;;;;;16.84;55.30;94937.91;4938475;29;20221;-85
2021/10/03 02:42:04;;;;;;;2.60;2.40;;;;;;;16.83;55.66;94944.13;4938352;29;20272;-84
2021/10/03 02:44:31;;;;;;;2.40;2.20;;;;;;;16.78;55.18;94947.41;4937634;29;20217;-84
2021/10/03 02:46:57;;;;;;;2.20;2.00;;;;;;;16.78;55.34;94941.44;4937805;29;20229;-84
2021/10/03 02:49:25;;;;;;;2.40;2.20;;;;;;;16.77;55.39;94934.66;4938105;29;20212;-85
2021/10/03 02:51:51;;;;;;;2.75;2.15;;;;;;;16.75;55.99;94936.69;4938052;29;20201;-84
2021/10/03 02:54:18;;;;;;;2.40;2.20;;;;;;;16.75;55.50;94934.88;4938149;29;20297;-85
2021/10/03 02:56:44;;;;;;;3.05;2.40;;;;;;;16.77;55.27;94927.63;4938213;29;20616;-83
2021/10/03 02:59:11;;;;;;;2.55;2.13;;;;;;;16.82;55.36;94925.16;4938164;29;20205;-85
2021/10/03 03:01:37;;;;;;;2.67;2.00;;;;;;;16.87;55.26;94924.47;4938302;29;20897;-85
2021/10/03 03:04:04;;;;;;;2.55;2.20;;;;;;;16.83;54.93;94925.94;4937772;29;20685;-83
2021/10/03 03:06:32;;;;;;;2.20;2.00;;;;;;;16.83;55.14;94924.13;4937614;29;20213;-85
2021/10/03 03:08:58;;;;;;;2.47;2.00;;;;;;;16.85;54.68;94924.69;4938194;29;20212;-85
2021/10/03 03:11:25;;;;;;;3.30;2.10;;;;;;;16.81;54.93;94923.56;4938132;29;20209;-85
2021/10/03 03:13:52;;;;;;;2.40;2.20;;;;;;;16.77;55.33;94919.84;4937299;29;20204;-85
2021/10/03 03:16:19;;;;;;;2.42;2.10;;;;;;;16.72;54.94;94913.78;4937256;29;20292;-85
2021/10/03 03:18:46;;;;;;;2.42;2.22;;;;;;;16.75;55.50;94908.88;4937216;29;20202;-83
2021/10/03 03:21:13;;;;;;;7.07;2.45;;;;;;;16.73;55.55;94907.56;4936836;29;20244;-83
2021/10/03 03:23:41;;;;;;;2.28;2.08;;;;;;;16.71;55.42;94909.59;4936843;29;20256;-83
2021/10/03 03:26:08;;;;;;;3.03;2.15;;;;;;;16.72;54.79;94909.38;4938032;29;20298;-84
2021/10/03 03:28:34;;;;;;;2.20;2.10;;;;;;;16.73;54.68;94910.94;4936410;29;20224;-85
2021/10/03 03:31:01;;;;;;;2.00;1.90;;;;;;;16.75;54.86;94908.88;4951395;28;20233;-84
2021/10/03 03:33:27;;;;;;;4.15;2.15;;;;;;;16.74;54.53;94909.91;4956285;29;20201;-85
2021/10/03 03:35:54;;;;;;;3.13;2.15;;;;;;;16.72;54.62;94909.38;4956554;29;20200;-85
2021/10/03 03:38:21;;;;;;;2.15;1.95;;;;;;;16.70;54.91;94903.59;4956457;29;20232;-85
2021/10/03 03:40:49;;;;;;;2.53;2.33;;;;;;;16.62;55.54;94898.72;4956924;29;20606;-83
2021/10/03 03:43:15;;;;;;;4.07;2.13;;;;;;;16.49;55.99;94904.19;4955896;29;20232;-83
2021/10/03 03:45:42;;;;;;;3.65;2.50;;;;;;;16.44;56.12;94901.47;4956624;29;20205;-84
2021/10/03 03:48:10;;;;;;;2.97;2.22;;;;;;;16.42;56.12;94904.31;4955998;29;20220;-85
2021/10/03 03:50:39;;;;;;;2.47;2.17;;;;;;;16.38;56.55;94903.19;4956607;29;20213;-82
2021/10/03 03:53:06;;;;;;;2.03;1.92;;;;;;;16.32;56.79;94895.53;4956692;29;20296;-83
2021/10/03 03:55:32;;;;;;;3.80;2.70;;;;;;;16.32;57.04;94898.91;4956125;29;20205;-83
2021/10/03 03:58:00;;;;;;;2.50;2.30;;;;;;;16.36;56.68;94892.22;4955356;29;20317;-83
2021/10/03 04:00:26;;;;;;;2.30;2.10;;;;;;;16.39;56.61;94883.19;4955576;29;20216;-84
2021/10/03 04:02:53;;;;;;;3.47;2.45;;;;;;;16.37;56.83;94891.22;4955379;29;20240;-85
2021/10/03 04:05:19;;;;;;;5.90;2.70;;;;;;;16.36;56.58;94889.63;4956071;29;20201;-83
2021/10/03 04:07:46;;;;;;;2.50;2.30;;;;;;;16.35;57.06;94887.28;4955248;29;20239;-84
2021/10/03 04:10:13;;;;;;;2.53;2.13;;;;;;;16.32;56.60;94882.53;4956235;29;20573;-84
2021/10/03 04:12:39;;;;;;;2.60;2.40;;;;;;;16.22;56.92;94886.50;4956234;29;20204;-82
2021/10/03 04:15:09;;;;;;;2.83;2.63;;;;;;;16.14;56.79;94888.66;4955787;29;20885;-84
2021/10/03 04:17:37;;;;;;;2.72;2.30;;;;;;;16.05;57.00;94882.22;4956376;29;20229;-84
2021/10/03 04:20:05;;;;;;;2.40;2.20;;;;;;;15.85;57.58;94883.38;4956143;29;20211;-81
2021/10/03 04:22:31;;;;;;;3.25;2.58;;;;;;;15.87;57.67;94883.16;4956218;29;20236;-83
2021/10/03 04:24:58;;;;;;;2.60;2.40;;;;;;;15.86;57.90;94881.56;4955836;29;20293;-84
2021/10/03 04:27:24;;;;;;;2.65;2.45;;;;;;;15.73;57.73;94882.59;4956116;29;20816;-85
2021/10/03 04:29:51;;;;;;;2.30;2.20;;;;;;;15.74;57.86;94884.16;4960318;28;20251;-84
2021/10/03 04:32:19;;;;;;;2.40;2.20;;;;;;;15.67;57.26;94878.28;4957253;28;20208;-84
2021/10/03 04:34:45;;;;;;;2.47;2.28;;;;;;;15.61;57.64;94878.38;4959437;29;20201;-84
2021/10/03 04:37:12;;;;;;;3.00;2.15;;;;;;;15.64;57.70;94878.72;4959261;29;20224;-82
2021/10/03 04:39:38;;;;;;;2.40;2.20;;;;;;;15.70;57.71;94883.03;4959671;29;20216;-84
2021/10/03 04:42:05;;;;;;;3.20;2.25;;;;;;;15.75;57.42;94880.56;4959053;29;20205;-84
2021/10/03 04:44:32;;;;;;;2.50;2.30;;;;;;;15.73;57.13;94882.59;4958530;29;20223;-83
2021/10/03 04:46:59;;;;;;;2.88;2.25;;;;;;;15.69;57.22;94886.63;4959571;29;20870;-84
2021/10/03 04:49:27;;;;;;;2.95;2.30;;;;;;;15.70;57.21;94884.84;4958781;29;20201;-85
2021/10/03 04:51:53;;;;;;;2.60;2.40;;;;;;;15.73;57.45;94880.00;4959425;29;20215;-84
2021/10/03 04:54:20;;;;;;;2.40;2.20;;;;;;;15.79;57.26;94878.28;4959149;29;20201;-81
2021/10/03 04:56:46;;;;;;;2.55;2.35;;;;;;;15.77;57.52;94880.34;4958969;29;20229;-84
2021/10/03 04:59:13;;;;;;;2.60;2.40;;;;;;;15.81;57.26;94879.63;4964438;28;20595;-84
2021/10/03 05:01:39;;;;;;;2.33;2.13;;;;;;;15.79;57.16;94889.44;4959051;29;20224;-83
2021/10/03 05:04:05;;;;;;;3.20;2.47;;;;;;;15.76;57.39;94886.53;4958827;29;20256;-84
2021/10/03 05:06:33;;;;;;;2.78;2.58;;;;;;;15.75;57.39;94885.75;4958152;29;20262;-83
2021/10/03 05:09:00;;;;;;;3.33;2.50;;;;;;;15.75;57.31;94892.75;4958711;29;20417;-84
2021/10/03 05:11:26;;;;;;;2.40;2.20;;;;;;;15.80;57.67;94880.66;4958548;29;20255;-82
2021/10/03 05:13:53;;;;;;;3.60;2.30;;;;;;;15.77;57.57;94885.53;4958792;29;20212;-83
2021/10/03 05:16:19;;;;;;;3.45;2.65;;;;;;;15.80;58.09;94885.06;4958700;29;20204;-85
2021/10/03 05:18:47;;;;;;;3.92;2.25;;;;;;;15.79;58.20;94886.06;4959006;29;20209;-85
2021/10/03 05:21:13;;;;;;;3.53;2.50;;;;;;;15.80;58.07;94887.66;4958776;29;20638;-85
2021/10/03 05:23:41;;;;;;;2.47;2.28;;;;;;;15.79;58.21;94893.84;4959067;29;20227;-85
2021/10/03 05:26:08;;;;;;;6.15;2.55;;;;;;;15.78;58.30;94895.66;4957925;29;20208;-84
2021/10/03 05:28:34;;;;;;;2.33;2.13;;;;;;;15.83;58.44;94890.59;4957322;29;20838;-83
2021/10/03 05:31:01;;;;;;;2.75;2.55;;;;;;;15.84;58.66;94902.56;4943101;28;20229;-83
2021/10/03 05:33:29;;;;;;;3.40;2.47;;;;;;;15.76;58.82;94894.31;4938966;29;20205;-84
2021/10/03 05:35:55;;;;;;;5.18;2.33;;;;;;;15.49;60.41;94891.31;4938686;29;20205;-83
2021/10/03 05:38:22;;;;;;;2.50;2.30;;;;;;;15.29;60.54;94890.84;4938374;29;20225;-82
2021/10/03 05:40:49;;;;;;;2.42;2.15;;;;;;;15.20;60.83;94898.16;4938775;29;20209;-84
2021/10/03 05:43:16;;;;;;;3.15;2.50;;;;;;;15.14;60.81;94888.66;4937873;29;20229;-83
2021/10/03 05:45:42;;;;;;;3.50;2.30;;;;;;;15.21;60.82;94886.75;4938906;29;20209;-84
2021/10/03 05:48:09;;;;;;;3.23;2.93;;;;;;;15.13;61.57;94887.88;4938727;29;20239;-83
2021/10/03 05:50:36;;;;;;;2.58;2.38;;;;;;;15.24;61.73;94880.34;4938399;29;20197;-82
2021/10/03 05:53:02;;;;;;;2.90;2.60;;;;;;;15.32;60.84;94880.81;4938323;29;20206;-83
2021/10/03 05:55:29;;;;;;;3.00;2.50;;;;;;;15.24;61.49;94878.53;4938235;29;20205;-84
2021/10/03 05:57:57;;;;;;;2.70;2.50;;;;;;;15.35;60.63;94877.00;4938228;29;20230;-84
2021/10/03 06:00:23;;;;;;;2.87;2.23;;;;;;;15.49;60.13;94873.97;4938202;29;20217;-82
2021/10/03 06:02:50;;;;;;;2.33;2.13;;;;;;;15.67;59.81;94874.91;4938651;29;20728;-82
2021/10/03 06:05:16;;;;;;;3.25;2.38;;;;;;;15.79;59.42;94865.31;4938434;29;20260;-84
2021/10/03 06:07:43;;;;;;;2.85;2.58;;;;;;;15.80;57.28;94867.66;4937884;29;20230;-85
2021/10/03 06:10:09;;;;;;;2.30;2.10;;;;;;;15.75;56.94;94871.97;4938257;29;20213;-83
2021/10/03 06:12:36;;;;;;;2.50;2.30;;;;;;;15.87;57.17;94876.16;4938239;29;20240;-84
2021/10/03 06:15:06;;;;;;;2.35;2.15;;;;;;;16.07;55.95;94864.63;4937535;29;20215;-84
2021/10/03 06:17:32;;;;;;;3.28;2.15;;;;;;;16.23;55.95;94867.28;4934435;29;20221;-84
2021/10/03 06:19:59;;;;;;;2.50;2.30;;;;;;;16.47;55.46;94864.66;4938276;29;20551;-81
2021/10/03 06:22:26;;;;;;;2.85;2.05;;;;;;;16.69;54.01;94863.03;4937387;29;20204;-83
2021/10/03 06:24:54;;;;;;;2.65;2.30;;;;;;;16.92;54.22;94875.94;4934232;29;20288;-81
2021/10/03 06:27:21;;;;;;;2.42;2.15;;;;;;;17.16;53.62;94868.00;4936622;29;20276;-84
2021/10/03 06:29:48;;;;;;;2.40;2.20;;;;;;;17.31;52.80;94865.69;4936697;29;20261;-85
2021/10/03 06:32:16;;;;;;;2.80;2.60;;;;;;;17.51;52.42;94867.81;4931403;29;20198;-83
2021/10/03 06:34:42;;;;;;;2.33;2.13;;;;;;;17.73;51.78;94867.88;4935284;29;20211;-84
2021/10/03 06:37:09;;;;;;;2.35;2.15;;;;;;;18.05;51.68;94875.91;4936046;29;20233;-83
2021/10/03 06:39:37;;;;;;;2.40;2.20;;;;;;;18.08;51.27;94880.66;4936164;29;20209;-84
2021/10/03 06:42:04;;;;;;;2.40;2.20;;;;;;;18.38;50.49;94873.22;4936114;29;20205;-81
2021/10/03 06:44:31;;;;;;;2.60;2.40;;;;;;;18.64;49.47;94869.13;4935664;29;20225;-84
2021/10/03 06:46:57;;;;;;;2.30;2.10;;;;;;;18.94;49.32;94869.44;4936120;29;20214;-83
2021/10/03 06:49:29;;;;;;;4.53;2.42;;;;;;;19.24;48.70;94858.47;4935836;29;20202;-85
2021/10/03 06:51:57;;;;;;;2.30;2.10;;;;;;;19.54;50.01;94865.81;4936778;29;20205;-84
2021/10/03 06:54:44;;;;;;;3.35;2.20;;;;;;;19.89;47.63;94873.13;4936895;29;20336;-82
2021/10/03 06:57:19;;;;;;;3.83;2.42;;;;;;;20.12;47.96;94860.72;4930227;29;20217;-84
2021/10/03 07:08:05;;;;;;;;;;;;;;;;;;;;;
2021/10/03 07:11:26;;;;;;;10.65;8.95;;;;;;;21.06;45.33;94873.63;4933938;29;20282;-84
2021/10/03 07:14:47;;;;;;;3.55;3.15;;;;;;;21.14;45.29;94872.34;4914554;29;20258;-84
2021/10/03 07:26:58;;;;;;;4.00;2.15;;;;;;;21.96;42.99;94856.38;5210268;23;20223;-85
2021/10/03 07:29:24;;;;;;;2.20;2.00;;;;;;;22.01;43.32;94859.00;4964632;28;20308;-86
2021/10/03 07:31:51;;;;;;;4.00;2.33;;;;;;;22.18;42.94;94863.16;4966415;28;20219;-85
2021/10/03 07:34:17;;;;;;;2.53;2.05;;;;;;;22.30;42.16;94858.44;4972360;28;20197;-86
2021/10/03 07:36:44;;;;;;;2.75;2.13;;;;;;;22.42;41.21;94864.16;4975321;28;20231;-84
2021/10/03 07:39:13;;;;;;;2.40;2.20;;;;;;;22.43;40.46;94859.69;4975293;28;20675;-83
2021/10/03 07:41:40;;;;;;;2.72;2.20;;;;;;;22.71;41.08;94864.28;4969093;28;20671;-82
2021/10/03 07:44:08;;;;;;;2.20;2.00;;;;;;;22.65;40.03;94862.75;4972125;28;20228;-84
2021/10/03 07:46:34;;;;;;;2.15;2.03;;;;;;;22.74;40.08;94861.13;4973516;28;20216;-84
2021/10/03 07:49:01;;;;;;;3.20;1.95;;;;;;;22.59;39.06;94859.34;4965649;28;20203;-86
2021/10/03 07:51:27;;;;;;;2.20;2.03;;;;;;;22.74;39.60;94858.50;4973465;28;20212;-84
2021/10/03 07:54:21;;;;;;;2.35;2.17;;;;;;;22.84;39.13;94866.38;5002558;22;20237;-85
2021/10/03 08:11:18;;;;;;;2.03;1.92;;;;;;;24.38;37.66;94878.84;5010013;28;20185;-87
2021/10/03 08:20:59;;;;;;;2.00;1.90;;;;;;;24.52;35.20;94876.31;4872533;29;20261;-86
2021/10/03 09:10:08;;;;;;;2.35;2.00;;;;;;;25.48;34.04;94864.50;5028591;28;20218;-86
2021/10/03 09:25:30;;;;;;;2.20;2.10;;;;;;;25.44;34.33;94860.06;4892750;29;20308;-87
2021/10/03 09:38:39;;;;;;;2.55;1.92;;;;;;;25.22;34.72;94854.59;5008237;28;20195;-89
2021/10/03 10:25:29;;;;;;;1.90;1.80;;;;;;;25.73;33.32;94826.41;5003293;23;20251;-88
2021/10/03 10:35:27;;;;;;;2.00;1.90;;;;;;;25.76;32.87;94817.94;4899452;29;20231;-86
2021/10/03 10:42:05;;;;;;;2.83;1.90;;;;;;;25.85;32.28;94815.41;4864375;28;20489;-87
2021/10/03 10:44:56;;;;;;;2.03;1.92;;;;;;;25.86;32.67;94808.25;4952489;28;20280;-86
2021/10/03 10:50:40;;;;;;;1.85;1.73;;;;;;;25.70;32.10;94813.81;4971913;28;20204;-87
2021/10/03 10:53:30;;;;;;;2.17;2.00;;;;;;;25.86;33.07;94808.25;4973073;28;20212;-87
2021/10/03 10:57:01;;;;;;;2.67;2.05;;;;;;;26.00;32.21;94804.56;4893062;29;20206;-87
2021/10/03 11:00:08;;;;;;;1.90;1.80;;;;;;;26.15;32.98;94798.22;4814928;29;20315;-89
2021/10/03 11:06:01;;;;;;;2.15;1.95;;;;;;;25.95;31.69;94801.25;4970087;28;20695;-86
2021/10/03 11:12:50;;;;;;;;;;;;;;;;;;;;;
2021/10/03 11:15:53;;;;;;;1.88;1.77;;;;;;;25.97;31.82;94799.09;4809599;29;20606;-88
2021/10/03 11:18:47;;;;;;;;;;;;;;;;;;;;;
2021/10/03 11:24:27;;;;;;;2.47;2.28;;;;;;;26.18;32.75;94794.97;4880521;29;20729;-87
2021/10/03 11:30:19;;;;;;;2.00;1.80;;;;;;;26.21;31.66;94794.41;4903927;28;20216;-86
2021/10/03 11:33:05;;;;;;;2.38;1.90;;;;;;;26.22;32.83;94788.03;4974977;28;20195;-86
2021/10/03 11:38:47;;;;;;;1.98;1.77;;;;;;;26.23;32.83;94799.38;4854544;29;20774;-86
2021/10/03 11:41:15;;;;;;;2.63;1.83;;;;;;;26.23;32.59;94792.25;4966558;28;20207;-85
2021/10/03 11:48:08;;;;;;;2.35;1.80;;;;;;;26.06;32.59;94787.56;4968280;28;20298;-86
2021/10/03 11:53:52;;;;;;;2.00;1.90;;;;;;;25.98;31.84;94790.13;4965740;28;20208;-85
2021/10/03 12:09:23;;;;;;;;;;;;;;;;;;;;;
2021/10/03 12:11:54;;;;;;;5.10;1.80;;;;;;;26.48;32.08;94769.88;4931143;29;20232;-86
2021/10/03 12:27:02;;;;;;;2.58;1.80;;;;;;;27.06;31.00;94769.94;5009001;28;20189;-87
2021/10/03 12:40:22;;;;;;;2.05;1.95;;;;;;;27.26;30.56;94766.03;4964081;28;20244;-87
2021/10/03 12:46:13;;;;;;;2.53;1.63;;;;;;;27.03;31.24;94767.88;4891183;29;20233;-87
2021/10/03 12:48:40;;;;;;;1.80;1.70;;;;;;;26.91;30.66;94767.63;4898826;29;20207;-81
2021/10/03 12:51:06;;;;;;;1.50;1.40;;;;;;;26.72;30.68;94765.13;4974122;28;20199;-84
2021/10/03 12:53:33;;;;;;;2.40;2.00;;;;;;;26.75;31.86;94763.72;5025056;28;20605;-83
2021/10/03 12:55:59;;;;;;;1.70;1.60;;;;;;;26.94;31.90;94760.97;5036377;28;20201;-82
2021/10/03 12:58:26;;;;;;;1.67;1.58;;;;;;;27.09;31.93;94753.47;5036619;28;20270;-81
2021/10/03 13:00:53;;;;;;;2.85;1.90;;;;;;;27.21;31.88;94750.28;5053069;28;20208;-82
2021/10/03 13:03:20;;;;;;;1.98;1.88;;;;;;;27.37;31.77;94751.47;5055874;28;20232;-83
2021/10/03 13:05:47;;;;;;;2.17;1.83;;;;;;;27.47;31.12;94743.28;5055691;28;20595;-83
2021/10/03 13:08:13;;;;;;;1.70;1.60;;;;;;;27.55;31.08;94747.06;5045363;28;20202;-84
2021/10/03 13:10:41;;;;;;;1.80;1.70;;;;;;;27.58;30.04;94740.41;5028999;28;20202;-80
2021/10/03 13:13:07;;;;;;;2.08;1.70;;;;;;;27.69;31.03;94747.78;5035334;28;20690;-83
2021/10/03 13:15:34;;;;;;;1.77;1.67;;;;;;;27.64;30.49;94750.56;5035923;28;20221;-83
2021/10/03 13:18:00;;;;;;;1.98;1.80;;;;;;;27.50;30.17;94747.19;5035776;28;20620;-82
2021/10/03 13:20:28;;;;;;;1.70;1.60;;;;;;;27.55;29.88;94746.28;5035818;28;20206;-82
2021/10/03 13:22:58;;;;;;;1.60;1.50;;;;;;;27.54;29.83;94737.56;5035630;28;20199;-83
2021/10/03 13:25:25;;;;;;;1.90;1.75;;;;;;;27.68;29.70;94740.94;5039877;28;20237;-83
2021/10/03 13:27:51;;;;;;;2.33;1.90;;;;;;;27.87;30.15;94745.22;5035719;28;20210;-81
2021/10/03 13:30:18;;;;;;;2.40;1.90;;;;;;;27.90;29.40;94744.59;5037519;28;20217;-84
2021/10/03 13:46:05;;;;;;;1.80;1.70;;;;;;;27.85;29.11;94743.66;4951384;29;20272;-84
2021/10/03 13:48:36;;;;;;;1.90;1.42;;;;;;;27.93;29.04;94743.97;4953366;29;20236;-84
2021/10/03 13:51:03;;;;;;;1.70;1.60;;;;;;;28.09;29.41;94747.78;4987234;28;20200;-84
2021/10/03 13:53:29;;;;;;;1.70;1.60;;;;;;;28.12;28.78;94739.22;5014568;28;20206;-86
2021/10/03 13:55:57;;;;;;;1.70;1.60;;;;;;;28.21;28.92;94753.28;5031792;28;20202;-84
2021/10/03 13:58:25;;;;;;;2.25;1.80;;;;;;;28.35;29.66;94742.56;5014703;28;20197;-85
2021/10/03 14:00:54;;;;;;;2.10;1.85;;;;;;;28.41;29.25;94746.63;5019849;28;20205;-84
2021/10/03 14:03:20;;;;;;;1.77;1.65;;;;;;;28.32;28.71;94746.59;5032241;28;20202;-83
2021/10/03 14:05:49;;;;;;;1.40;1.30;;;;;;;28.39;29.64;94743.50;5032610;28;20226;-84
2021/10/03 14:08:16;;;;;;;1.98;1.50;;;;;;;28.41;29.42;94738.69;5033599;28;20205;-83
2021/10/03 14:10:42;;;;;;;1.90;1.80;;;;;;;28.46;29.34;94741.97;5026115;28;20286;-86
2021/10/03 14:13:09;;;;;;;2.35;1.77;;;;;;;28.48;29.86;94733.72;5028464;28;20582;-85
2021/10/03 14:15:37;;;;;;;1.70;1.60;;;;;;;28.44;29.85;94735.44;5024600;28;20214;-86
2021/10/03 14:18:03;;;;;;;1.80;1.70;;;;;;;28.37;29.73;94732.44;5022660;28;20210;-86
2021/10/03 14:20:35;;;;;;;1.80;1.70;;;;;;;28.33;29.89;94739.44;5013820;28;20210;-82
2021/10/03 14:46:55;;;;;;;2.13;1.70;;;;;;;27.36;31.87;94760.47;4848083;29;20228;-84
2021/10/03 14:50:00;;;;;;;;;;;;;;;;;;;;;
2021/10/03 14:56:48;;;;;;;;;;;;;;;;;;;;;
2021/10/03 15:02:43;;;;;;;2.83;1.65;;;;;;;27.66;31.41;94744.97;4823028;29;20300;-82
2021/10/03 15:15:43;;;;;;;2.83;1.80;;;;;;;27.65;31.50;94754.78;4820921;29;20260;-85
2021/10/03 15:18:10;;;;;;;2.05;1.90;;;;;;;27.47;32.34;94748.59;4928550;29;20696;-84
2021/10/03 15:20:38;;;;;;;1.67;1.58;;;;;;;27.40;31.97;94755.38;4999157;28;20269;-84
2021/10/03 15:23:05;;;;;;;3.85;1.77;;;;;;;27.17;32.54;94751.97;5030883;28;20206;-84
2021/10/03 15:25:31;;;;;;;1.70;1.60;;;;;;;26.94;33.27;94758.31;5033195;28;20257;-84
2021/10/03 15:27:58;;;;;;;1.55;1.45;;;;;;;26.79;32.95;94762.06;5033341;28;20688;-84
2021/10/03 15:30:25;;;;;;;1.73;1.63;;;;;;;26.70;33.07;94763.88;5033203;28;20232;-84
2021/10/03 15:32:52;;;;;;;1.88;1.70;;;;;;;26.60;33.91;94764.06;5032932;28;20288;-84
2021/10/03 15:35:19;;;;;;;3.20;1.58;;;;;;;26.63;33.73;94764.25;5033005;28;20663;-84
2021/10/03 15:37:47;;;;;;;1.65;1.55;;;;;;;26.70;34.38;94771.78;5033914;28;20216;-84
2021/10/03 15:40:15;;;;;;;1.77;1.65;;;;;;;26.69;33.25;94763.09;5034072;28;20285;-84
2021/10/03 15:42:42;;;;;;;1.67;1.58;;;;;;;26.63;33.40;94771.41;5032858;28;20191;-83
2021/10/03 15:45:11;;;;;;;1.67;1.58;;;;;;;26.64;33.27;94770.31;5032677;28;20221;-84
2021/10/03 15:50:10;;;;;;;1.70;1.60;;;;;;;26.52;33.94;94772.72;5009453;28;20215;-86
2021/10/03 15:52:37;;;;;;;1.63;1.52;;;;;;;26.47;34.68;94778.88;5012512;28;20207;-86
2021/10/03 15:55:07;;;;;;;2.10;1.90;;;;;;;26.35;34.74;94776.75;5012137;28;20210;-84
2021/10/03 15:57:34;;;;;;;1.85;1.75;;;;;;;26.25;34.94;94781.41;5012469;28;20215;-85
2021/10/03 16:00:01;;;;;;;1.60;1.50;;;;;;;26.25;35.32;94784.03;5011821;28;20226;-85
2021/10/03 16:02:27;;;;;;;1.70;1.60;;;;;;;26.23;35.18;94780.91;5012367;28;20719;-85
2021/10/03 16:04:54;;;;;;;1.60;1.50;;;;;;;26.20;35.45;94784.91;5011336;28;20230;-85
2021/10/03 16:07:20;;;;;;;2.17;1.50;;;;;;;26.07;35.31;94781.22;5012351;28;20222;-85
2021/10/03 16:09:47;;;;;;;1.70;1.60;;;;;;;25.88;35.05;94777.88;5012398;28;20233;-84
2021/10/03 16:12:16;;;;;;;1.65;1.55;;;;;;;25.70;35.26;94779.53;5012612;28;20203;-84
2021/10/03 16:14:43;;;;;;;2.38;1.83;;;;;;;25.62;35.81;94777.56;5011951;28;20222;-84
2021/10/03 16:17:09;;;;;;;1.83;1.60;;;;;;;25.52;36.43;94779.56;5013105;28;20207;-85
2021/10/03 16:19:36;;;;;;;2.15;1.83;;;;;;;25.44;36.26;94781.00;5012978;28;20222;-84
2021/10/03 16:22:05;;;;;;;1.80;1.67;;;;;;;25.41;36.76;94777.09;5012863;28;20214;-86
2021/10/03 16:24:32;;;;;;;2.00;1.80;;;;;;;25.32;37.32;94788.59;5011487;28;20210;-85
2021/10/03 16:26:58;;;;;;;1.77;1.67;;;;;;;25.23;37.35;94782.41;5012235;28;20230;-85
2021/10/03 16:29:26;;;;;;;1.65;1.55;;;;;;;25.15;37.62;94791.75;5007797;28;20226;-84
2021/10/03 16:31:52;;;;;;;2.22;2.03;;;;;;;25.06;37.89;94791.59;5016589;28;20199;-84
2021/10/03 16:34:19;;;;;;;1.95;1.85;;;;;;;25.02;38.08;94792.47;5016046;28;20206;-84
2021/10/03 16:36:47;;;;;;;4.45;1.90;;;;;;;24.94;38.53;94793.91;5015690;28;20199;-84
2021/10/03 16:39:14;;;;;;;4.00;1.95;;;;;;;24.89;38.45;94791.31;5016546;28;20334;-85
2021/10/03 16:41:40;;;;;;;1.90;1.80;;;;;;;24.83;38.81;94792.44;5005962;28;20204;-84
2021/10/03 16:44:07;;;;;;;1.90;1.70;;;;;;;24.77;38.73;94802.28;5006339;28;20202;-85